Time;durP1;ratioP1;P1;durP2;ratioP2;P2;SDS_P1;SDS_P2;PMS_P1;PMS_P2;Temp;Humidity;BMP_temperature;BMP_pressure;BME280_temperature;BME280_humidity;BME280_pressure;Samples;Min_cycle;Max_cycle;Signal;HPM_P1;HPM_P2
2024/01/06 00:01:05;;;;;;;;;;;-0.10;81.90;;;;;;4141447;28;19924;-82
2024/01/06 00:03:24;;;;;;;;;;;-0.10;82.40;;;;;;4140542;28;19925;-84
2024/01/06 00:05:43;;;;;;;;;;;-0.10;82.40;;;;;;4141511;28;19928;-83
2024/01/06 00:08:03;;;;;;;;;;;-0.10;82.40;;;;;;4145905;28;19991;-84
2024/01/06 00:10:22;;;;;;;;;;;-0.10;82.20;;;;;;4140445;28;19924;-83
2024/01/06 00:12:41;;;;;;;;;;;-0.10;82.10;;;;;;4156014;28;20317;-82
2024/01/06 00:15:01;;;;;;;;;;;-0.20;81.80;;;;;;4137851;28;19972;-83
2024/01/06 00:17:20;;;;;;;;;;;-0.10;82.80;;;;;;4145481;28;19928;-82
2024/01/06 00:19:39;;;;;;;;;;;-0.10;82.10;;;;;;4145342;28;19974;-83
2024/01/06 00:22:00;;;;;;;;;;;-0.30;80.30;;;;;;4144829;28;19964;-82
2024/01/06 00:24:19;;;;;;;;;;;-0.30;81.00;;;;;;4145498;28;19932;-83
2024/01/06 00:26:38;;;;;;;;;;;-0.30;80.00;;;;;;4142627;28;19960;-82
2024/01/06 00:28:57;;;;;;;;;;;-0.20;80.10;;;;;;4144535;28;19925;-81
2024/01/06 00:31:17;;;;;;;;;;;-0.10;79.80;;;;;;4143331;28;19921;-82
2024/01/06 00:33:36;;;;;;;;;;;-0.20;80.00;;;;;;4157289;28;19927;-83
2024/01/06 00:35:58;;;;;;;;;;;-0.10;79.10;;;;;;4137767;28;20009;-80
2024/01/06 00:38:18;;;;;;;;;;;-0.30;78.50;;;;;;4151354;28;20398;-82
2024/01/06 00:40:37;;;;;;;;;;;-0.20;78.80;;;;;;4143855;28;20666;-84
2024/01/06 00:42:56;;;;;;;;;;;-0.30;78.60;;;;;;4143541;28;20366;-83
2024/01/06 00:45:15;;;;;;;;;;;-0.10;78.70;;;;;;4140586;28;19925;-80
2024/01/06 00:47:35;;;;;;;;;;;-0.20;78.30;;;;;;4142219;28;19920;-83
2024/01/06 00:49:54;;;;;;;;;;;-0.20;79.00;;;;;;4143586;28;20004;-83
2024/01/06 00:52:13;;;;;;;;;;;-0.10;79.00;;;;;;4137865;23;19937;-83
2024/01/06 00:54:32;;;;;;;;;;;-0.20;78.60;;;;;;4110442;28;19926;-81
2024/01/06 00:56:52;;;;;;;;;;;0.10;78.20;;;;;;4113040;28;19933;-82
2024/01/06 00:59:11;;;;;;;;;;;0.00;78.30;;;;;;4091723;28;20685;-81
2024/01/06 01:01:30;;;;;;;;;;;0.00;78.30;;;;;;4123399;28;19924;-81
2024/01/06 01:03:49;;;;;;;;;;;-0.10;78.10;;;;;;4110446;28;20043;-82
2024/01/06 01:06:09;;;;;;;;;;;0.10;78.20;;;;;;4109939;28;20053;-81
2024/01/06 01:08:28;;;;;;;;;;;-0.10;77.70;;;;;;4096566;28;19989;-82
2024/01/06 01:10:47;;;;;;;;;;;0.00;77.80;;;;;;4110188;28;20497;-81
2024/01/06 01:13:07;;;;;;;;;;;0.00;78.00;;;;;;4110400;28;19922;-82
2024/01/06 01:15:26;;;;;;;;;;;0.00;77.90;;;;;;4111520;28;19921;-82
2024/01/06 01:17:45;;;;;;;;;;;0.10;78.00;;;;;;4095301;28;19941;-81
2024/01/06 01:20:05;;;;;;;;;;;-0.10;78.40;;;;;;4113492;28;20027;-83
2024/01/06 01:22:24;;;;;;;;;;;0.00;77.70;;;;;;4109556;28;20284;-81
2024/01/06 01:24:46;;;;;;;;;;;-0.10;77.90;;;;;;4108128;28;20553;-82
2024/01/06 01:27:06;;;;;;;;;;;0.10;78.40;;;;;;4111458;28;19921;-81
2024/01/06 01:29:25;;;;;;;;;;;-0.20;78.10;;;;;;4109175;28;19980;-82
2024/01/06 01:31:44;;;;;;;;;;;0.00;78.30;;;;;;4109898;28;20126;-82
2024/01/06 01:34:03;;;;;;;;;;;-0.10;78.70;;;;;;4098116;28;19920;-82
2024/01/06 01:36:23;;;;;;;;;;;0.10;79.30;;;;;;4117517;28;20000;-83
2024/01/06 01:38:42;;;;;;;;;;;-0.10;78.40;;;;;;4105148;28;20056;-82
2024/01/06 01:41:01;;;;;;;;;;;0.00;78.60;;;;;;4107783;28;19929;-82
2024/01/06 01:43:21;;;;;;;;;;;-0.10;78.60;;;;;;4097548;28;19981;-82
2024/01/06 01:45:40;;;;;;;;;;;-0.10;78.40;;;;;;4109694;28;19929;-83
2024/01/06 01:48:00;;;;;;;;;;;0.00;78.30;;;;;;4111808;28;19997;-83
2024/01/06 01:50:20;;;;;;;;;;;0.00;78.00;;;;;;4109328;28;20503;-82
2024/01/06 01:52:40;;;;;;;;;;;0.10;78.80;;;;;;4096981;28;20026;-83
2024/01/06 01:54:59;;;;;;;;;;;-0.10;78.30;;;;;;4098556;28;20383;-82
2024/01/06 01:57:20;;;;;;;;;;;-0.10;78.40;;;;;;4107841;28;19921;-83
2024/01/06 01:59:40;;;;;;;;;;;0.00;78.40;;;;;;4110368;28;19921;-82
2024/01/06 02:01:59;;;;;;;;;;;0.00;79.40;;;;;;4110067;28;19960;-82
2024/01/06 02:04:18;;;;;;;;;;;0.10;79.00;;;;;;4095788;28;20461;-82
2024/01/06 02:06:37;;;;;;;;;;;0.20;78.80;;;;;;4109466;28;20299;-82
2024/01/06 02:08:57;;;;;;;;;;;0.20;78.70;;;;;;4108933;28;19937;-82
2024/01/06 02:11:16;;;;;;;;;;;0.10;78.50;;;;;;4109894;28;20316;-82
2024/01/06 02:13:36;;;;;;;;;;;0.30;79.00;;;;;;4109049;28;19921;-82
2024/01/06 02:15:55;;;;;;;;;;;0.00;79.60;;;;;;4094698;28;20069;-82
2024/01/06 02:18:18;;;;;;;;;;;0.10;78.90;;;;;;4108377;28;21061;-82
2024/01/06 02:20:37;;;;;;;;;;;0.20;78.70;;;;;;4109136;28;19949;-82
2024/01/06 02:22:58;;;;;;;;;;;0.30;78.60;;;;;;4108140;28;19930;-81
2024/01/06 02:25:18;;;;;;;;;;;0.20;78.70;;;;;;4106958;28;19972;-81
2024/01/06 02:27:37;;;;;;;;;;;0.10;77.80;;;;;;4107193;28;19960;-82
2024/01/06 02:29:56;;;;;;;;;;;0.20;77.50;;;;;;4105967;28;20387;-82
2024/01/06 02:32:16;;;;;;;;;;;0.10;77.10;;;;;;4106334;28;19960;-83
2024/01/06 02:34:38;;;;;;;;;;;0.10;76.90;;;;;;4107874;28;19976;-83
2024/01/06 02:36:57;;;;;;;;;;;0.00;76.50;;;;;;4105302;28;19976;-83
2024/01/06 02:39:16;;;;;;;;;;;0.00;76.40;;;;;;4107570;28;20001;-82
2024/01/06 02:41:36;;;;;;;;;;;0.00;76.40;;;;;;4110464;28;19921;-83
2024/01/06 02:43:56;;;;;;;;;;;0.10;76.10;;;;;;4092285;28;19934;-82
2024/01/06 02:46:15;;;;;;;;;;;0.00;75.50;;;;;;4108099;28;19974;-83
2024/01/06 02:48:34;;;;;;;;;;;0.00;75.90;;;;;;4093329;28;19925;-82
2024/01/06 02:50:53;;;;;;;;;;;-0.10;76.40;;;;;;4108623;28;19960;-82
2024/01/06 02:53:12;;;;;;;;;;;-0.10;76.00;;;;;;4108007;28;19929;-82
2024/01/06 02:55:32;;;;;;;;;;;0.20;75.90;;;;;;4107924;28;19928;-82
2024/01/06 02:57:51;;;;;;;;;;;0.10;75.90;;;;;;4106650;28;20045;-82
2024/01/06 03:00:12;;;;;;;;;;;0.00;76.00;;;;;;4105688;28;19925;-81
2024/01/06 03:02:35;;;;;;;;;;;0.00;76.10;;;;;;4105870;28;20306;-83
2024/01/06 03:04:56;;;;;;;;;;;0.10;76.20;;;;;;4110350;28;19926;-82
2024/01/06 03:07:17;;;;;;;;;;;0.10;76.50;;;;;;4097557;28;19921;-83
2024/01/06 03:09:38;;;;;;;;;;;0.20;76.10;;;;;;4109766;28;20008;-83
2024/01/06 03:11:57;;;;;;;;;;;0.30;75.70;;;;;;4112831;28;19924;-82
2024/01/06 03:14:17;;;;;;;;;;;0.30;75.50;;;;;;4111147;28;19957;-82
2024/01/06 03:16:36;;;;;;;;;;;0.20;75.40;;;;;;4109626;28;19925;-82
2024/01/06 03:18:57;;;;;;;;;;;0.20;75.30;;;;;;4110094;28;19914;-82
2024/01/06 03:21:18;;;;;;;;;;;0.30;75.30;;;;;;4110076;28;20171;-83
2024/01/06 03:23:50;;;;;;;;;;;0.10;75.30;;;;;;4111188;28;20213;-82
2024/01/06 03:26:14;;;;;;;;;;;0.20;75.50;;;;;;4110814;28;19929;-82
2024/01/06 03:28:33;;;;;;;;;;;0.20;75.10;;;;;;4109813;28;19968;-82
2024/01/06 03:30:52;;;;;;;;;;;0.20;75.00;;;;;;4109567;28;19925;-82
2024/01/06 03:33:12;;;;;;;;;;;0.20;75.10;;;;;;4097445;28;19921;-82
2024/01/06 03:35:31;;;;;;;;;;;0.20;75.70;;;;;;4112689;28;19924;-82
2024/01/06 03:37:53;;;;;;;;;;;0.10;75.90;;;;;;4108040;28;19925;-83
2024/01/06 03:40:12;;;;;;;;;;;0.30;76.20;;;;;;4110116;28;19922;-83
2024/01/06 03:42:32;;;;;;;;;;;0.20;75.40;;;;;;4109423;28;19936;-81
2024/01/06 03:44:51;;;;;;;;;;;0.10;74.60;;;;;;4112152;28;19933;-82
2024/01/06 03:47:10;;;;;;;;;;;0.20;75.00;;;;;;4113116;28;19949;-82
2024/01/06 03:49:29;;;;;;;;;;;0.40;75.40;;;;;;4111649;28;19929;-82
2024/01/06 03:51:49;;;;;;;;;;;0.10;75.30;;;;;;4111994;28;19980;-82
2024/01/06 03:54:08;;;;;;;;;;;0.20;75.00;;;;;;4110642;28;20402;-82
2024/01/06 03:56:27;;;;;;;;;;;0.20;74.80;;;;;;4112923;28;20438;-82
2024/01/06 03:58:47;;;;;;;;;;;0.20;74.80;;;;;;4111244;28;19921;-82
2024/01/06 04:01:06;;;;;;;;;;;0.10;75.00;;;;;;4097029;28;19957;-82
2024/01/06 04:03:25;;;;;;;;;;;0.10;74.80;;;;;;4108558;28;20027;-82
2024/01/06 04:05:45;;;;;;;;;;;0.20;75.20;;;;;;4111338;28;19976;-83
2024/01/06 04:08:04;;;;;;;;;;;0.00;75.10;;;;;;4112360;28;20517;-82
2024/01/06 04:10:23;;;;;;;;;;;0.10;75.70;;;;;;4111862;28;20577;-82
2024/01/06 04:12:42;;;;;;;;;;;0.20;74.90;;;;;;4114180;28;20395;-82
2024/01/06 04:15:04;;;;;;;;;;;0.10;74.60;;;;;;4112532;28;19921;-83
2024/01/06 04:17:26;;;;;;;;;;;0.20;74.40;;;;;;4112006;28;20444;-82
2024/01/06 04:19:45;;;;;;;;;;;0.00;74.50;;;;;;4112762;28;19984;-83
2024/01/06 04:22:04;;;;;;;;;;;0.20;75.40;;;;;;4101282;28;19953;-82
2024/01/06 04:24:23;;;;;;;;;;;0.20;74.60;;;;;;4107511;28;20339;-82
2024/01/06 04:26:44;;;;;;;;;;;0.10;74.40;;;;;;4096966;28;19925;-83
2024/01/06 04:29:03;;;;;;;;;;;0.20;74.10;;;;;;4110029;28;20002;-81
2024/01/06 04:31:23;;;;;;;;;;;0.10;73.90;;;;;;4112518;28;19921;-82
2024/01/06 04:33:42;;;;;;;;;;;0.30;74.00;;;;;;4097379;28;19984;-83
2024/01/06 04:36:02;;;;;;;;;;;0.20;73.90;;;;;;4115222;28;20027;-83
2024/01/06 04:38:21;;;;;;;;;;;0.20;75.30;;;;;;4114052;28;19976;-82
2024/01/06 04:40:41;;;;;;;;;;;0.20;75.80;;;;;;4115146;28;19929;-83
2024/01/06 04:43:00;;;;;;;;;;;0.30;75.70;;;;;;4112145;28;19921;-82
2024/01/06 04:45:19;;;;;;;;;;;0.30;75.70;;;;;;4114101;28;19932;-82
2024/01/06 04:47:52;;;;;;;;;;;0.30;76.50;;;;;;4111775;28;19914;-82
2024/01/06 04:50:12;;;;;;;;;;;0.20;77.40;;;;;;4110677;28;19925;-82
2024/01/06 04:52:31;;;;;;;;;;;0.10;78.00;;;;;;4097200;28;19953;-82
2024/01/06 04:54:50;;;;;;;;;;;0.10;78.50;;;;;;4114148;28;20261;-83
2024/01/06 04:57:10;;;;;;;;;;;0.00;78.80;;;;;;4110074;28;19949;-82
2024/01/06 04:59:29;;;;;;;;;;;-0.20;79.50;;;;;;4112322;28;19951;-82
2024/01/06 05:01:48;;;;;;;;;;;-0.20;79.70;;;;;;4111601;28;20430;-82
2024/01/06 05:04:07;;;;;;;;;;;-0.30;80.50;;;;;;4099483;28;19946;-82
2024/01/06 05:06:27;;;;;;;;;;;-0.30;80.90;;;;;;4110528;28;19925;-82
2024/01/06 05:08:46;;;;;;;;;;;-0.20;81.00;;;;;;4111955;28;20006;-82
2024/01/06 05:11:05;;;;;;;;;;;-0.40;81.50;;;;;;4109821;28;20430;-82
2024/01/06 05:13:25;;;;;;;;;;;-0.40;82.70;;;;;;4099429;28;19924;-82
2024/01/06 05:15:44;;;;;;;;;;;-0.40;82.80;;;;;;4112601;28;19969;-82
2024/01/06 05:18:03;;;;;;;;;;;-0.50;82.10;;;;;;4110902;28;19925;-83
2024/01/06 05:20:22;;;;;;;;;;;-0.50;82.30;;;;;;4112106;28;19976;-82
2024/01/06 05:22:42;;;;;;;;;;;-0.50;82.80;;;;;;4099017;28;19945;-82
2024/01/06 05:25:01;;;;;;;;;;;-0.60;82.70;;;;;;4113223;28;19986;-82
2024/01/06 05:27:20;;;;;;;;;;;-0.50;82.70;;;;;;4098018;28;19937;-83
2024/01/06 05:29:39;;;;;;;;;;;-0.60;83.20;;;;;;4111924;28;19973;-82
2024/01/06 05:31:59;;;;;;;;;;;-0.60;83.30;;;;;;4111554;28;19980;-82
2024/01/06 05:34:18;;;;;;;;;;;-0.70;83.60;;;;;;4113565;28;20071;-82
2024/01/06 05:36:37;;;;;;;;;;;-0.70;84.90;;;;;;4112139;28;19925;-81
2024/01/06 05:38:56;;;;;;;;;;;-0.80;84.00;;;;;;4112352;28;19929;-82
2024/01/06 05:41:16;;;;;;;;;;;-0.80;85.00;;;;;;4112332;28;19929;-82
2024/01/06 05:43:35;;;;;;;;;;;-0.80;84.90;;;;;;4110866;28;19929;-82
2024/01/06 05:45:56;;;;;;;;;;;-0.60;85.20;;;;;;4094511;28;21463;-81
2024/01/06 05:48:15;;;;;;;;;;;-0.80;85.30;;;;;;4111696;28;19941;-82
2024/01/06 05:50:34;;;;;;;;;;;-0.70;85.40;;;;;;4097880;28;19944;-82
2024/01/06 05:52:54;;;;;;;;;;;-0.70;85.30;;;;;;4111928;28;19989;-82
2024/01/06 05:55:13;;;;;;;;;;;-0.60;85.20;;;;;;4113467;28;19929;-82
2024/01/06 05:57:32;;;;;;;;;;;-0.60;85.40;;;;;;4110118;28;19984;-82
2024/01/06 05:59:51;;;;;;;;;;;-0.50;86.10;;;;;;4111103;28;19957;-83
2024/01/06 06:02:11;;;;;;;;;;;-0.60;85.50;;;;;;4112961;28;19945;-83
2024/01/06 06:04:30;;;;;;;;;;;-0.50;85.80;;;;;;4111515;28;19964;-82
2024/01/06 06:06:49;;;;;;;;;;;-0.60;85.70;;;;;;4110912;28;20002;-83
2024/01/06 06:09:09;;;;;;;;;;;-0.50;85.60;;;;;;4109340;28;19968;-82
2024/01/06 06:11:29;;;;;;;;;;;-0.60;86.40;;;;;;4109784;28;20028;-83
2024/01/06 06:13:48;;;;;;;;;;;-0.60;85.60;;;;;;4111651;28;20769;-82
2024/01/06 06:16:13;;;;;;;;;;;-0.50;85.60;;;;;;4098616;28;19962;-83
2024/01/06 06:18:35;;;;;;;;;;;-0.50;85.60;;;;;;4109164;28;19925;-82
2024/01/06 06:20:55;;;;;;;;;;;-0.50;85.50;;;;;;4109885;28;19948;-84
2024/01/06 06:23:14;;;;;;;;;;;-0.40;85.60;;;;;;4107172;28;19957;-82
2024/01/06 06:25:33;;;;;;;;;;;-0.60;85.90;;;;;;4112151;28;19926;-82
2024/01/06 06:27:52;;;;;;;;;;;-0.60;86.60;;;;;;4110112;28;19932;-82
2024/01/06 06:30:12;;;;;;;;;;;-0.70;85.70;;;;;;4111271;28;19972;-82
2024/01/06 06:32:31;;;;;;;;;;;-0.70;86.00;;;;;;4112060;28;19929;-82
2024/01/06 06:34:51;;;;;;;;;;;-0.70;85.80;;;;;;4108087;28;19929;-82
2024/01/06 06:37:13;;;;;;;;;;;-0.70;86.10;;;;;;4096411;28;19934;-84
2024/01/06 06:39:34;;;;;;;;;;;-0.60;86.10;;;;;;4108392;28;20349;-82
2024/01/06 06:41:53;;;;;;;;;;;-0.60;85.90;;;;;;4116297;28;19929;-82
2024/01/06 06:44:12;;;;;;;;;;;-0.70;87.10;;;;;;4115590;28;19933;-82
2024/01/06 06:46:31;;;;;;;;;;;-0.70;86.20;;;;;;4112657;28;20024;-83
2024/01/06 06:48:51;;;;;;;;;;;-0.70;87.20;;;;;;4107769;28;19921;-82
2024/01/06 06:51:10;;;;;;;;;;;-0.50;86.60;;;;;;4115422;28;19968;-81
2024/01/06 06:53:29;;;;;;;;;;;-0.60;86.40;;;;;;4112148;28;20625;-82
2024/01/06 06:55:48;;;;;;;;;;;-0.60;86.30;;;;;;4115358;28;19922;-82
2024/01/06 06:58:08;;;;;;;;;;;-0.60;86.60;;;;;;4112816;28;19961;-83
2024/01/06 07:00:27;;;;;;;;;;;-0.80;87.20;;;;;;4116389;28;19937;-83
2024/01/06 07:02:46;;;;;;;;;;;-0.70;86.60;;;;;;4099892;28;20381;-83
2024/01/06 07:05:08;;;;;;;;;;;-0.70;86.50;;;;;;4114606;28;19989;-83
2024/01/06 07:07:28;;;;;;;;;;;-0.70;86.80;;;;;;4112552;28;19937;-82
2024/01/06 07:09:47;;;;;;;;;;;-0.60;87.60;;;;;;4116050;28;19922;-82
2024/01/06 07:12:06;;;;;;;;;;;-0.70;86.80;;;;;;4113053;28;19998;-82
2024/01/06 07:14:25;;;;;;;;;;;-0.70;87.00;;;;;;4112536;28;19977;-83
2024/01/06 07:16:45;;;;;;;;;;;-0.50;86.90;;;;;;4113000;28;19988;-83
2024/01/06 07:21:13;;;;;;;;;;;-0.80;86.90;;;;;;4100503;28;19931;-81
2024/01/06 07:23:32;;;;;;;;;;;-0.80;87.00;;;;;;4109562;28;19922;-80
2024/01/06 07:25:52;;;;;;;;;;;-0.80;86.80;;;;;;4111978;28;19929;-83
2024/01/06 07:28:11;;;;;;;;;;;-0.80;87.70;;;;;;4106278;28;20521;-80
2024/01/06 07:30:27;;;;;;;;;;;-0.90;87.00;;;;;;4112521;28;19941;-81
2024/01/06 07:32:47;;;;;;;;;;;-0.80;87.10;;;;;;4108885;28;19930;-79
2024/01/06 07:35:06;;;;;;;;;;;-0.80;87.30;;;;;;4122751;28;19973;-82
2024/01/06 07:37:25;;;;;;;;;;;-0.80;88.40;;;;;;4122179;28;20008;-80
2024/01/06 07:39:44;;;;;;;;;;;-0.80;88.60;;;;;;4113850;28;19941;-78
2024/01/06 07:42:04;;;;;;;;;;;-0.80;88.50;;;;;;4111735;28;19995;-81
2024/01/06 07:44:24;;;;;;;;;;;-0.80;88.20;;;;;;4119568;28;19929;-81
2024/01/06 07:46:43;;;;;;;;;;;-0.80;87.80;;;;;;4123940;28;19925;-79
2024/01/06 07:49:03;;;;;;;;;;;-0.80;88.00;;;;;;4124535;28;19973;-80
2024/01/06 07:51:22;;;;;;;;;;;-0.70;88.00;;;;;;4110220;28;19925;-82
2024/01/06 07:53:42;;;;;;;;;;;-0.70;87.70;;;;;;4120445;28;20618;-80
2024/01/06 07:56:01;;;;;;;;;;;-0.70;88.00;;;;;;4112195;28;19926;-78
2024/01/06 07:58:21;;;;;;;;;;;-0.80;87.70;;;;;;4109229;28;20016;-79
2024/01/06 08:00:40;;;;;;;;;;;-0.70;88.10;;;;;;4110173;28;20423;-80
2024/01/06 08:03:00;;;;;;;;;;;-0.70;87.90;;;;;;4110266;28;19937;-79
2024/01/06 08:05:19;;;;;;;;;;;-0.70;87.80;;;;;;4101387;28;19993;-82
2024/01/06 08:07:39;;;;;;;;;;;-0.70;88.10;;;;;;4119026;28;19960;-80
2024/01/06 08:09:58;;;;;;;;;;;-0.70;87.50;;;;;;4109210;28;19925;-81
2024/01/06 08:12:17;;;;;;;;;;;-0.60;87.70;;;;;;4108644;28;19921;-78
2024/01/06 08:14:36;;;;;;;;;;;-0.60;87.40;;;;;;4099410;28;19968;-79
2024/01/06 08:16:56;;;;;;;;;;;-0.60;87.80;;;;;;4116397;28;19940;-82
2024/01/06 08:19:15;;;;;;;;;;;-0.60;88.10;;;;;;4102821;28;20010;-80
2024/01/06 08:21:35;;;;;;;;;;;-0.70;88.10;;;;;;4105206;28;19968;-81
2024/01/06 08:23:54;;;;;;;;;;;-0.70;88.10;;;;;;4106711;28;19970;-82
2024/01/06 08:26:13;;;;;;;;;;;-0.60;88.00;;;;;;4109177;28;20017;-79
2024/01/06 08:28:33;;;;;;;;;;;-0.50;87.90;;;;;;4107258;28;19934;-82
2024/01/06 08:30:52;;;;;;;;;;;-0.60;88.00;;;;;;4109752;28;19973;-80
2024/01/06 08:33:12;;;;;;;;;;;-0.60;87.80;;;;;;4106489;28;19928;-81
2024/01/06 08:35:31;;;;;;;;;;;-0.60;87.90;;;;;;4101171;28;19988;-79
2024/01/06 08:37:50;;;;;;;;;;;-0.60;87.80;;;;;;4101804;28;19921;-79
2024/01/06 08:40:10;;;;;;;;;;;-0.70;88.60;;;;;;4107216;28;19929;-80
2024/01/06 08:42:29;;;;;;;;;;;-0.60;87.90;;;;;;4107242;28;19921;-80
2024/01/06 08:44:48;;;;;;;;;;;-0.60;87.90;;;;;;4106727;28;19925;-83
2024/01/06 08:47:07;;;;;;;;;;;-0.50;87.80;;;;;;4106813;28;19968;-79
2024/01/06 08:49:26;;;;;;;;;;;-0.50;87.70;;;;;;4105587;28;19968;-79
2024/01/06 08:51:47;;;;;;;;;;;-0.50;87.90;;;;;;4106459;28;20008;-79
2024/01/06 08:54:06;;;;;;;;;;;-0.50;87.80;;;;;;4104566;28;20071;-82
2024/01/06 08:56:26;;;;;;;;;;;-0.50;87.90;;;;;;4118003;28;19921;-78
2024/01/06 08:58:45;;;;;;;;;;;-0.50;87.60;;;;;;4107714;28;19921;-80
2024/01/06 09:01:04;;;;;;;;;;;-0.40;87.60;;;;;;4109613;28;20439;-81
2024/01/06 09:03:25;;;;;;;;;;;-0.50;87.70;;;;;;4105236;28;19924;-80
2024/01/06 09:05:45;;;;;;;;;;;-0.50;87.90;;;;;;4107764;28;20086;-82
2024/01/06 09:08:04;;;;;;;;;;;-0.40;88.20;;;;;;4106569;28;19965;-81
2024/01/06 09:10:23;;;;;;;;;;;-0.40;88.90;;;;;;4110163;28;20237;-83
2024/01/06 09:12:42;;;;;;;;;;;-0.40;88.00;;;;;;4105057;28;19969;-82
2024/01/06 09:15:02;;;;;;;;;;;-0.50;88.30;;;;;;4107916;28;19921;-82
2024/01/06 09:17:22;;;;;;;;;;;-0.40;88.40;;;;;;4106874;28;19933;-82
2024/01/06 09:19:41;;;;;;;;;;;-0.50;88.30;;;;;;4106410;28;20426;-82
2024/01/06 09:22:01;;;;;;;;;;;-0.40;88.20;;;;;;4109982;28;19928;-81
2024/01/06 09:24:20;;;;;;;;;;;-0.40;88.50;;;;;;4107658;28;20587;-81
2024/01/06 09:26:39;;;;;;;;;;;-0.40;88.20;;;;;;4108922;28;19925;-82
2024/01/06 09:28:59;;;;;;;;;;;-0.40;88.10;;;;;;4105802;28;19962;-80
2024/01/06 09:31:18;;;;;;;;;;;-0.40;88.60;;;;;;4123582;28;19925;-82
2024/01/06 09:33:38;;;;;;;;;;;-0.40;88.10;;;;;;4106799;28;19925;-81
2024/01/06 09:35:57;;;;;;;;;;;-0.30;88.20;;;;;;4112209;28;21371;-80
2024/01/06 09:38:17;;;;;;;;;;;-0.40;87.90;;;;;;4122379;28;19921;-81
2024/01/06 09:40:40;;;;;;;;;;;-0.30;87.70;;;;;;4108583;28;19925;-81
2024/01/06 09:43:00;;;;;;;;;;;-0.30;87.80;;;;;;4110342;28;19921;-80
2024/01/06 09:45:20;;;;;;;;;;;-0.30;87.70;;;;;;4107261;28;19929;-81
2024/01/06 09:47:40;;;;;;;;;;;-0.30;87.80;;;;;;4109943;28;20053;-82
2024/01/06 09:50:00;;;;;;;;;;;-0.30;87.70;;;;;;4108212;28;19933;-80
2024/01/06 09:52:21;;;;;;;;;;;-0.30;88.70;;;;;;4121810;28;19929;-84
2024/01/06 09:54:44;;;;;;;;;;;-0.30;87.70;;;;;;4110304;28;19924;-81
2024/01/06 09:57:05;;;;;;;;;;;-0.20;88.50;;;;;;4110013;28;19952;-80
2024/01/06 09:59:25;;;;;;;;;;;-0.20;87.50;;;;;;4108852;28;19932;-80
2024/01/06 10:01:45;;;;;;;;;;;-0.30;87.30;;;;;;4123723;28;20025;-81
2024/01/06 10:04:04;;;;;;;;;;;-0.30;88.30;;;;;;4108648;28;19929;-82
2024/01/06 10:06:23;;;;;;;;;;;-0.30;87.40;;;;;;4108073;28;20007;-81
2024/01/06 10:08:43;;;;;;;;;;;-0.30;88.20;;;;;;4108179;28;20008;-82
2024/01/06 10:11:02;;;;;;;;;;;-0.30;87.70;;;;;;4108866;28;19929;-81
2024/01/06 10:13:23;;;;;;;;;;;-0.30;87.60;;;;;;4113451;28;19974;-80
2024/01/06 10:15:43;;;;;;;;;;;-0.30;88.30;;;;;;4112952;28;19992;-83
2024/01/06 10:18:03;;;;;;;;;;;-0.40;88.10;;;;;;4109526;28;19981;-82
2024/01/06 10:20:22;;;;;;;;;;;-0.50;87.50;;;;;;4110583;28;19929;-81
2024/01/06 10:22:42;;;;;;;;;;;-0.40;87.60;;;;;;4112346;28;19925;-82
2024/01/06 10:25:01;;;;;;;;;;;-0.40;87.60;;;;;;4109442;28;19933;-81
2024/01/06 10:27:21;;;;;;;;;;;-0.40;88.50;;;;;;4110794;28;19952;-81
2024/01/06 10:29:40;;;;;;;;;;;-0.40;87.50;;;;;;4110161;28;20057;-82
2024/01/06 10:31:59;;;;;;;;;;;-0.50;87.40;;;;;;4108358;28;19925;-81
2024/01/06 10:34:19;;;;;;;;;;;-0.50;87.80;;;;;;4108668;28;19926;-81
2024/01/06 10:36:38;;;;;;;;;;;-0.60;87.70;;;;;;4105286;28;19925;-78
2024/01/06 10:38:58;;;;;;;;;;;-0.50;87.90;;;;;;4109261;28;19999;-81
2024/01/06 10:41:17;;;;;;;;;;;-0.50;87.80;;;;;;4106758;28;20953;-80
2024/01/06 10:43:43;;;;;;;;;;;-0.50;88.20;;;;;;4107729;28;19953;-83
2024/01/06 10:46:04;;;;;;;;;;;-0.60;88.00;;;;;;4108383;28;19921;-82
2024/01/06 10:48:30;;;;;;;;;;;-0.60;88.00;;;;;;4108933;28;19921;-81
2024/01/06 10:50:50;;;;;;;;;;;-0.50;88.40;;;;;;4103663;28;20345;-81
2024/01/06 10:53:18;;;;;;;;;;;-0.50;88.20;;;;;;4110040;28;19962;-83
2024/01/06 10:55:39;;;;;;;;;;;-0.50;88.10;;;;;;4108724;28;19936;-78
2024/01/06 10:57:58;;;;;;;;;;;-0.40;88.20;;;;;;4108392;28;19973;-81
2024/01/06 11:00:17;;;;;;;;;;;-0.40;88.00;;;;;;4107994;28;20004;-81
2024/01/06 11:02:37;;;;;;;;;;;-0.50;88.20;;;;;;4108516;28;19990;-81
2024/01/06 11:04:56;;;;;;;;;;;-0.40;88.30;;;;;;4106560;28;20545;-82
2024/01/06 11:07:17;;;;;;;;;;;-0.40;87.20;;;;;;4110699;28;19925;-82
2024/01/06 11:09:37;;;;;;;;;;;-0.40;87.30;;;;;;4102875;28;20597;-80
2024/01/06 11:11:57;;;;;;;;;;;-0.50;86.70;;;;;;4107749;28;19964;-82
2024/01/06 11:14:24;;;;;;;;;;;-0.50;86.50;;;;;;4100044;28;20130;-81
2024/01/06 11:16:43;;;;;;;;;;;-0.40;86.70;;;;;;4103927;28;20584;-81
2024/01/06 11:19:03;;;;;;;;;;;-0.50;86.50;;;;;;4106113;28;19968;-81
2024/01/06 11:21:24;;;;;;;;;;;-0.50;86.20;;;;;;4105631;28;19933;-82
2024/01/06 11:23:44;;;;;;;;;;;-0.50;86.10;;;;;;4108550;28;19946;-80
2024/01/06 11:26:03;;;;;;;;;;;-0.40;86.70;;;;;;4106154;28;19933;-79
2024/01/06 11:28:22;;;;;;;;;;;-0.50;85.80;;;;;;4104462;28;19942;-81
2024/01/06 11:30:42;;;;;;;;;;;-0.60;85.70;;;;;;4119286;28;20363;-82
2024/01/06 11:33:04;;;;;;;;;;;-0.50;85.70;;;;;;4105850;28;20017;-81
2024/01/06 11:35:23;;;;;;;;;;;-0.60;85.20;;;;;;4108398;28;20501;-82
2024/01/06 11:37:43;;;;;;;;;;;-0.50;85.30;;;;;;4109662;28;19972;-81
2024/01/06 11:40:02;;;;;;;;;;;-0.60;85.20;;;;;;4118385;28;19964;-81
2024/01/06 11:42:21;;;;;;;;;;;-0.50;85.30;;;;;;4102044;28;20016;-81
2024/01/06 11:44:49;;;;;;;;;;;-0.60;84.80;;;;;;4105266;28;19933;-81
2024/01/06 11:47:11;;;;;;;;;;;-0.60;84.80;;;;;;4106254;28;19933;-80
2024/01/06 11:49:31;;;;;;;;;;;-0.60;84.60;;;;;;4106642;28;19929;-81
2024/01/06 11:51:50;;;;;;;;;;;-0.60;85.40;;;;;;4110374;28;19954;-82
2024/01/06 11:54:09;;;;;;;;;;;-0.50;84.70;;;;;;4106398;28;20328;-80
2024/01/06 11:56:28;;;;;;;;;;;-0.50;84.60;;;;;;4118981;28;19917;-80
2024/01/06 11:58:48;;;;;;;;;;;-0.50;84.50;;;;;;4128963;28;19949;-80
2024/01/06 12:01:07;;;;;;;;;;;-0.50;84.60;;;;;;4128436;28;19964;-80
2024/01/06 12:03:26;;;;;;;;;;;-0.50;84.30;;;;;;4115746;28;19929;-82
2024/01/06 12:05:58;;;;;;;;;;;-0.50;84.50;;;;;;4105366;28;20022;-83
2024/01/06 12:08:19;;;;;;;;;;;-0.50;85.20;;;;;;4105397;28;20009;-81
2024/01/06 12:10:38;;;;;;;;;;;-0.60;84.30;;;;;;4107902;28;20009;-81
2024/01/06 12:12:58;;;;;;;;;;;-0.40;84.40;;;;;;4104612;28;19964;-83
2024/01/06 12:15:17;;;;;;;;;;;-0.50;83.90;;;;;;4104729;28;19969;-82
2024/01/06 12:17:39;;;;;;;;;;;-0.50;84.00;;;;;;4105001;28;19929;-83
2024/01/06 12:19:59;;;;;;;;;;;-0.50;84.40;;;;;;4103723;28;20224;-81
2024/01/06 12:22:18;;;;;;;;;;;-0.60;83.40;;;;;;4104081;28;19972;-82
2024/01/06 12:24:37;;;;;;;;;;;-0.60;83.40;;;;;;4106195;28;19929;-82
2024/01/06 12:26:59;;;;;;;;;;;-0.60;83.40;;;;;;4105876;28;20229;-81
2024/01/06 12:29:19;;;;;;;;;;;-0.50;83.40;;;;;;4102820;28;20555;-82
2024/01/06 12:31:41;;;;;;;;;;;-0.60;84.20;;;;;;4101819;28;19994;-78
2024/01/06 12:34:00;;;;;;;;;;;-0.50;83.50;;;;;;4103512;28;19925;-81
2024/01/06 12:36:20;;;;;;;;;;;-0.60;83.50;;;;;;4097404;28;19924;-81
2024/01/06 12:38:41;;;;;;;;;;;-0.50;83.30;;;;;;4111125;28;19980;-82
2024/01/06 12:41:01;;;;;;;;;;;-0.50;83.20;;;;;;4103601;28;19973;-81
2024/01/06 12:43:20;;;;;;;;;;;-0.50;83.90;;;;;;4102958;28;19982;-82
2024/01/06 12:45:39;;;;;;;;;;;-0.50;83.00;;;;;;4118422;28;20410;-82
2024/01/06 12:47:58;;;;;;;;;;;-0.50;83.10;;;;;;4104649;28;19928;-82
2024/01/06 12:50:18;;;;;;;;;;;-0.50;82.90;;;;;;4105909;28;19921;-82
2024/01/06 12:52:38;;;;;;;;;;;-0.50;82.90;;;;;;4129227;28;20064;-81
2024/01/06 12:54:57;;;;;;;;;;;-0.50;82.90;;;;;;4105243;28;19973;-83
2024/01/06 12:57:17;;;;;;;;;;;-0.50;83.10;;;;;;4099480;28;19929;-80
2024/01/06 12:59:36;;;;;;;;;;;-0.50;83.10;;;;;;4106227;28;20033;-83
2024/01/06 13:01:55;;;;;;;;;;;-0.50;82.80;;;;;;4107829;28;19961;-82
2024/01/06 13:04:14;;;;;;;;;;;-0.40;83.70;;;;;;4106234;28;20009;-79
2024/01/06 13:06:34;;;;;;;;;;;-0.50;83.70;;;;;;4103279;28;20498;-81
2024/01/06 13:08:53;;;;;;;;;;;-0.50;83.10;;;;;;4097729;28;19989;-82
2024/01/06 13:11:13;;;;;;;;;;;-0.40;82.80;;;;;;4104900;28;19968;-83
2024/01/06 13:13:32;;;;;;;;;;;-0.60;82.70;;;;;;4106378;28;19932;-81
2024/01/06 13:15:51;;;;;;;;;;;-0.50;83.70;;;;;;4116291;28;20453;-81
2024/01/06 13:18:12;;;;;;;;;;;-0.40;83.00;;;;;;4116366;28;20423;-80
2024/01/06 13:20:31;;;;;;;;;;;-0.60;82.70;;;;;;4117304;28;20015;-82
2024/01/06 13:22:51;;;;;;;;;;;-0.40;82.80;;;;;;4103371;28;19928;-82
2024/01/06 13:25:11;;;;;;;;;;;-0.50;82.50;;;;;;4101902;28;19933;-82
2024/01/06 13:27:30;;;;;;;;;;;-0.50;82.40;;;;;;4101881;28;20004;-82
2024/01/06 13:29:51;;;;;;;;;;;-0.50;82.50;;;;;;4101642;28;19929;-80
2024/01/06 13:32:11;;;;;;;;;;;-0.50;82.60;;;;;;4117035;28;19948;-83
2024/01/06 13:34:30;;;;;;;;;;;-0.50;82.80;;;;;;4109146;28;19969;-82
2024/01/06 13:36:49;;;;;;;;;;;-0.50;82.80;;;;;;4104679;28;19940;-82
2024/01/06 13:39:16;;;;;;;;;;;-0.60;82.70;;;;;;4105795;28;19972;-81